| time (UTC) | temp F | wind direction | speed knots | gust knots | rain 1hr in | rain 24hr in | rain mn in | humidity % | barometer mb |
| 20260507163011 | 56 | 268 | 0.9 | 5.2 | 0.00 | 0.65 | 0.00 | 48 | 993.2 |
| 20260507161509 | 55 | 312 | 0.9 | 5.2 | 0.00 | 0.65 | 0.00 | 46 | 993.6 |
| 20260507160004 | 54 | 349 | 1.7 | 4.3 | 0.00 | 0.68 | 0.00 | 45 | 993.8 |
| 20260507154600 | 52 | 191 | 1.7 | 6.1 | 0.00 | 0.68 | 0.00 | 42 | 994.0 |
| 20260507153111 | 50 | 55 | 0.9 | 8.7 | 0.00 | 0.68 | 0.00 | 44 | 993.9 |
| 20260507151558 | 49 | 232 | 1.7 | 7.0 | 0.00 | 0.68 | 0.00 | 46 | 993.9 |
| 20260507150053 | 48 | 268 | 2.6 | 13.0 | 0.00 | 0.68 | 0.00 | 43 | 993.9 |
| 20260507144545 | 47 | 172 | 1.7 | 9.6 | 0.00 | 0.68 | 0.00 | 47 | 994.0 |
| 20260507143049 | 46 | 232 | 0.0 | 2.6 | 0.00 | 0.68 | 0.00 | 50 | 994.2 |
| 20260507141539 | 45 | 248 | 1.7 | 5.2 | 0.00 | 0.68 | 0.00 | 47 | 994.1 |
| 20260507140037 | 44 | 199 | 0.0 | 5.2 | 0.00 | 0.68 | 0.00 | 50 | 994.3 |
| 20260507134535 | 44 | 194 | 0.0 | 1.7 | 0.00 | 0.68 | 0.00 | 50 | 994.3 |
| 20260507133032 | 43 | 107 | 0.0 | 5.2 | 0.00 | 0.68 | 0.00 | 50 | 994.4 |
| 20260507131529 | 42 | 254 | 0.0 | 4.3 | 0.00 | 0.68 | 0.00 | 50 | 994.3 |
| 20260507130052 | 40 | 360 | 0.9 | 7.0 | 0.00 | 0.68 | 0.00 | 48 | 994.3 |
| 20260507124522 | 37 | 263 | 1.7 | 4.3 | 0.00 | 0.68 | 0.00 | 52 | 994.0 |
| 20260507123020 | 33 | 297 | 0.0 | 0.0 | 0.00 | 0.68 | 0.00 | 66 | 994.0 |
| 20260507121520 | 33 | 253 | 0.0 | 6.1 | 0.00 | 0.68 | 0.00 | 71 | 993.8 |
| 20260507120022 | 34 | 337 | 0.0 | 0.9 | 0.00 | 0.68 | 0.00 | 67 | 993.8 |
| 20260507114520 | 37 | 337 | 0.0 | 0.9 | 0.00 | 0.68 | 0.00 | 59 | 993.7 |
| 20260507113016 | 37 | 149 | 0.0 | 0.0 | 0.00 | 0.68 | 0.00 | 55 | 993.8 |
| 20260507111517 | 36 | 149 | 0.0 | 2.6 | 0.00 | 0.68 | 0.00 | 55 | 993.9 |
| 20260507110011 | 35 | 138 | 0.0 | 0.9 | 0.00 | 0.68 | 0.00 | 57 | 994.1 |
| 20260507104509 | 35 | 138 | 0.0 | 0.0 | 0.00 | 0.68 | 0.00 | 59 | 994.3 |
| 20260507103006 | 35 | 137 | 0.0 | 0.0 | 0.00 | 0.68 | 0.00 | 60 | 994.3 |
| 20260507101503 | 34 | 234 | 0.0 | 3.5 | 0.00 | 0.68 | 0.00 | 63 | 994.5 |
| 20260507100113 | 30 | 238 | 0.9 | 3.5 | 0.00 | 0.68 | 0.00 | 77 | 994.6 |
| 20260507094557 | 28 | 170 | 0.0 | 0.9 | 0.00 | 0.68 | 0.00 | 82 | 994.4 |
| 20260507093100 | 28 | 163 | 0.0 | 1.7 | 0.00 | 0.68 | 0.00 | 83 | 994.5 |
| 20260507091557 | 29 | 163 | 0.0 | 0.0 | 0.00 | 0.68 | 0.00 | 83 | 994.6 |
| 20260507090051 | 29 | 163 | 0.0 | 0.0 | 0.00 | 0.68 | 0.00 | 82 | 994.7 |
| 20260507084551 | 30 | 163 | 0.0 | 0.0 | 0.00 | 0.68 | 0.00 | 81 | 994.7 |
| 20260507083103 | 31 | 163 | 0.0 | 1.7 | 0.00 | 0.68 | 0.00 | 80 | 994.7 |
| 20260507081555 | 31 | 163 | 0.0 | 2.6 | 0.00 | 0.68 | 0.00 | 80 | 994.9 |
| 20260507080043 | 31 | 163 | 0.0 | 2.6 | 0.00 | 0.68 | 0.00 | 81 | 995.1 |
| 20260507074541 | 31 | 174 | 0.0 | 0.9 | 0.00 | 0.68 | 0.00 | 83 | 995.2 |
| 20260507073051 | 31 | 163 | 0.0 | 4.3 | 0.00 | 0.68 | 0.00 | 85 | 995.3 |
| 20260507071538 | 31 | 186 | 0.0 | 2.6 | 0.00 | 0.68 | 0.00 | 86 | 995.4 |
| 20260507070041 | 31 | 136 | 0.0 | 1.7 | 0.00 | 0.68 | 0.00 | 87 | 995.3 |
| 20260507064540 | 31 | 132 | 0.0 | 4.3 | 0.00 | 0.68 | 0.00 | 87 | 995.4 |
| 20260507063034 | 31 | 221 | 0.0 | 1.7 | 0.00 | 0.68 | 0.00 | 88 | 995.5 |
| 20260507061532 | 31 | 223 | 0.0 | 0.9 | 0.00 | 0.68 | 0.00 | 88 | 995.6 |
| 20260507060029 | 31 | 223 | 0.0 | 0.0 | 0.00 | 0.68 | 0.68 | 88 | 995.7 |
| 20260507054537 | 31 | 155 | 0.0 | 6.1 | 0.00 | 0.68 | 0.68 | 88 | 995.5 |
| 20260507053028 | 31 | 194 | 1.7 | 7.0 | 0.00 | 0.68 | 0.68 | 88 | 995.5 |
| 20260507051528 | 31 | 152 | 0.9 | 6.1 | 0.00 | 0.68 | 0.68 | 88 | 995.6 |
| 20260507050034 | 32 | 169 | 0.0 | 4.3 | 0.00 | 0.68 | 0.68 | 87 | 995.6 |
| 20260507044535 | 32 | 209 | 0.0 | 2.6 | 0.00 | 0.68 | 0.68 | 87 | 995.8 |
| 20260507043026 | 32 | 247 | 0.0 | 6.1 | 0.00 | 0.68 | 0.68 | 86 | 996.1 |
| 20260507041534 | 32 | 172 | 1.7 | 6.1 | 0.00 | 0.68 | 0.68 | 87 | 995.9 |
| 20260507040024 | 31 | 183 | 1.7 | 6.1 | 0.00 | 0.68 | 0.68 | 87 | 995.8 |
| 20260507034523 | 31 | 146 | 0.9 | 4.3 | 0.00 | 0.68 | 0.68 | 88 | 995.8 |
| 20260507033026 | 30 | 153 | 0.0 | 2.6 | 0.00 | 0.68 | 0.68 | 88 | 996.0 |
| 20260507031526 | 30 | 155 | 0.0 | 2.6 | 0.00 | 0.68 | 0.68 | 88 | 995.8 |
| 20260507030022 | 30 | 167 | 0.0 | 1.7 | 0.00 | 0.68 | 0.68 | 89 | 995.7 |
| 20260507024523 | 30 | 156 | 0.0 | 0.0 | 0.00 | 0.68 | 0.68 | 89 | 995.7 |
| 20260507023020 | 30 | 178 | 0.0 | 0.0 | 0.00 | 0.68 | 0.68 | 88 | 995.7 |
| 20260507021520 | 31 | 179 | 0.0 | 1.7 | 0.00 | 0.68 | 0.68 | 87 | 995.7 |
| 20260507020023 | 31 | 179 | 0.0 | 0.0 | 0.00 | 0.68 | 0.68 | 86 | 995.8 |
| 20260507014524 | 32 | 179 | 0.0 | 0.0 | 0.00 | 0.68 | 0.68 | 84 | 995.8 |
| 20260507013023 | 33 | 179 | 0.0 | 0.9 | 0.00 | 0.68 | 0.68 | 82 | 995.9 |
| 20260507011520 | 34 | 179 | 0.0 | 1.7 | 0.00 | 0.68 | 0.68 | 82 | 995.8 |
| 20260507010017 | 34 | 179 | 0.0 | 0.0 | 0.00 | 0.69 | 0.68 | 82 | 995.9 |
| 20260507004531 | 34 | 179 | 0.0 | 0.0 | 0.00 | 0.69 | 0.68 | 80 | 995.8 |
| 20260507003016 | 34 | 179 | 0.0 | 2.6 | 0.00 | 0.69 | 0.68 | 79 | 995.8 |
| 20260507001520 | 35 | 223 | 0.0 | 0.9 | 0.00 | 0.69 | 0.68 | 75 | 995.8 |
| 20260507000019 | 37 | 224 | 1.7 | 3.5 | 0.00 | 0.73 | 0.68 | 70 | 996.0 |
| 20260506234516 | 38 | 223 | 0.0 | 0.9 | 0.00 | 0.73 | 0.68 | 70 | 996.0 |
| 20260506233011 | 38 | 294 | 0.0 | 2.6 | 0.00 | 0.73 | 0.68 | 70 | 996.0 |
| 20260506231527 | 36 | 292 | 0.0 | 3.5 | 0.01 | 0.73 | 0.68 | 78 | 996.2 |
| 20260506230010 | 35 | 333 | 0.0 | 1.7 | 0.02 | 0.76 | 0.68 | 76 | 996.4 |
| 20260506224510 | 36 | 298 | 0.0 | 0.9 | 0.03 | 0.76 | 0.68 | 74 | 996.4 |
| 20260506223008 | 38 | 293 | 1.7 | 4.3 | 0.06 | 0.76 | 0.68 | 72 | 996.4 |
| 20260506221503 | 37 | 323 | 0.9 | 4.3 | 0.07 | 0.75 | 0.67 | 75 | 996.4 |
| 20260506220002 | 37 | 325 | 0.0 | 2.6 | 0.08 | 0.77 | 0.66 | 74 | 996.4 |
| 20260506214549 | 38 | 350 | 0.0 | 0.0 | 0.09 | 0.76 | 0.65 | 76 | 996.4 |
| 20260506213102 | 36 | 351 | 0.0 | 3.5 | 0.10 | 0.73 | 0.62 | 78 | 996.4 |
| 20260506211554 | 35 | 350 | 0.0 | 3.5 | 0.11 | 0.71 | 0.60 | 83 | 996.7 |
| 20260506210041 | 34 | 351 | 0.9 | 2.6 | 0.12 | 0.69 | 0.57 | 83 | 997.0 |
| 20260506204547 | 35 | 350 | 1.7 | 2.6 | 0.13 | 0.69 | 0.56 | 81 | 997.0 |
| 20260506203043 | 35 | 332 | 0.0 | 0.0 | 0.13 | 0.65 | 0.52 | 84 | 997.0 |
| 20260506201551 | 35 | 42 | 0.9 | 2.6 | 0.12 | 0.61 | 0.48 | 83 | 997.2 |
| 20260506200034 | 34 | 317 | 0.0 | 2.6 | 0.15 | 0.60 | 0.46 | 88 | 997.1 |
| 20260506194534 | 33 | 10 | 0.9 | 3.5 | 0.16 | 0.56 | 0.42 | 86 | 997.3 |
| 20260506193036 | 34 | 324 | 0.0 | 2.6 | 0.18 | 0.53 | 0.39 | 85 | 997.4 |
| 20260506191540 | 34 | 327 | 0.0 | 4.3 | 0.18 | 0.50 | 0.36 | 84 | 997.3 |
| 20260506190031 | 33 | 24 | 0.9 | 3.5 | 0.15 | 0.47 | 0.31 | 86 | 997.5 |
| 20260506184531 | 33 | 57 | 0.0 | 3.5 | 0.12 | 0.42 | 0.26 | 87 | 997.3 |
| 20260506183040 | 33 | 35 | 0.9 | 3.5 | 0.09 | 0.37 | 0.21 | 85 | 997.2 |
| 20260506181529 | 33 | 51 | 0.0 | 3.5 | 0.10 | 0.34 | 0.18 | 86 | 997.2 |
| 20260506180028 | 33 | 18 | 0.0 | 2.6 | 0.11 | 0.35 | 0.16 | 87 | 997.5 |
| 20260506174528 | 33 | 55 | 0.9 | 3.5 | 0.10 | 0.33 | 0.14 | 85 | 997.3 |
| 20260506173027 | 33 | 33 | 0.9 | 3.5 | 0.08 | 0.31 | 0.12 | 86 | 996.6 |
| 20260506171530 | 34 | 41 | 0.0 | 2.6 | 0.04 | 0.27 | 0.08 | 86 | 996.7 |
| 20260506170024 | 34 | 42 | 0.0 | 2.6 | 0.02 | 0.28 | 0.05 | 90 | 996.8 |
| 20260506164522 | 32 | 61 | 0.0 | 5.2 | 0.03 | 0.28 | 0.04 | 90 | 996.5 |